createdAt,value
2022-11-29T00:00:30.482Z,0.28
2022-11-29T00:03:01.245Z,0.63
2022-11-29T00:05:32.090Z,0.73
2022-11-29T00:08:02.892Z,0.13
2022-11-29T00:10:33.426Z,1.10
2022-11-29T00:13:03.859Z,0.57
2022-11-29T00:15:37.869Z,1.90
2022-11-29T00:18:09.669Z,0.40
2022-11-29T00:20:42.038Z,0.93
2022-11-29T00:23:12.281Z,0.32
2022-11-29T00:25:42.714Z,0.43
2022-11-29T00:28:13.138Z,0.28
2022-11-29T00:30:43.562Z,0.43
2022-11-29T00:33:15.138Z,0.85
2022-11-29T00:35:45.981Z,1.13
2022-11-29T00:38:18.035Z,0.25
2022-11-29T00:40:52.921Z,0.68
2022-11-29T00:43:23.171Z,0.50
2022-11-29T00:45:53.571Z,1.10
2022-11-29T00:48:25.158Z,0.30
2022-11-29T00:50:55.802Z,1.23
2022-11-29T00:53:26.755Z,0.88
2022-11-29T00:55:57.498Z,0.40
2022-11-29T00:58:27.872Z,0.77
2022-11-29T01:00:58.786Z,0.20
2022-11-29T01:03:29.566Z,0.77
2022-11-29T01:06:09.787Z,1.30
2022-11-29T01:08:40.884Z,0.80
2022-11-29T01:11:26.456Z,0.20
2022-11-29T01:14:00.749Z,0.45
2022-11-29T01:16:33.699Z,0.47
2022-11-29T01:19:05.567Z,1.15
2022-11-29T01:21:37.115Z,0.95
2022-11-29T01:24:08.140Z,1.20
2022-11-29T01:26:38.942Z,1.13
2022-11-29T01:29:09.877Z,0.60
2022-11-29T01:31:40.308Z,0.55
2022-11-29T01:34:10.759Z,0.60
2022-11-29T01:36:41.686Z,0.90
2022-11-29T01:39:18.608Z,0.30
2022-11-29T01:41:48.950Z,1.00
2022-11-29T01:44:19.621Z,0.45
2022-11-29T01:46:52.442Z,1.42
2022-11-29T01:49:31.317Z,2.50
2022-11-29T01:52:13.910Z,0.32
2022-11-29T01:54:51.748Z,0.50
2022-11-29T01:57:23.466Z,0.38
2022-11-29T01:59:58.683Z,0.98
2022-11-29T02:02:54.944Z,1.58
2022-11-29T02:05:26.230Z,1.20
2022-11-29T02:08:00.237Z,1.67
2022-11-29T02:11:15.020Z,1.45
2022-11-29T02:13:54.417Z,0.20
2022-11-29T02:16:41.178Z,0.35
2022-11-29T02:19:29.488Z,0.77
2022-11-29T02:22:13.080Z,0.30
2022-11-29T02:24:46.763Z,1.50
2022-11-29T02:27:20.270Z,5.05
2022-11-29T02:30:11.060Z,0.50
2022-11-29T02:32:56.842Z,1.35
2022-11-29T02:35:41.550Z,0.30
2022-11-29T02:38:15.522Z,1.08
2022-11-29T02:41:21.265Z,0.22
2022-11-29T02:44:35.626Z,1.15
2022-11-29T02:47:10.550Z,0.50
2022-11-29T02:50:13.583Z,0.73
2022-11-29T02:53:17.478Z,0.80
2022-11-29T02:56:15.892Z,0.13
2022-11-29T02:59:08.664Z,1.23
2022-11-29T03:02:08.771Z,0.35
2022-11-29T03:04:47.974Z,0.40
2022-11-29T03:07:43.262Z,0.80
2022-11-29T03:10:52.748Z,0.13
2022-11-29T03:13:44.640Z,1.25
2022-11-29T03:16:48.024Z,1.08
2022-11-29T03:19:48.924Z,1.15
2022-11-29T03:22:28.939Z,1.45
2022-11-29T03:25:22.664Z,0.55
2022-11-29T03:28:19.994Z,0.00
2022-11-29T03:31:16.711Z,1.05
2022-11-29T03:33:53.412Z,0.77
2022-11-29T03:37:01.746Z,0.50
2022-11-29T03:39:53.275Z,0.30
2022-11-29T03:42:36.639Z,0.25
2022-11-29T03:45:43.252Z,1.02
2022-11-29T03:48:37.816Z,0.70
2022-11-29T03:51:41.429Z,1.23
2022-11-29T03:54:15.134Z,0.52
2022-11-29T03:56:46.436Z,0.68
2022-11-29T03:59:28.130Z,1.13
2022-11-29T04:02:32.733Z,0.98
2022-11-29T04:05:31.626Z,1.10
2022-11-29T04:08:23.095Z,1.25
2022-11-29T04:10:59.824Z,0.22
2022-11-29T04:13:57.409Z,0.63
2022-11-29T04:17:01.982Z,0.45
2022-11-29T04:20:07.966Z,2.47
2022-11-29T04:23:05.525Z,0.30
2022-11-29T04:25:59.607Z,1.98
2022-11-29T04:28:47.106Z,1.67
2022-11-29T04:31:35.621Z,0.40
2022-11-29T04:34:31.824Z,1.40
2022-11-29T04:37:34.406Z,0.43
2022-11-29T04:40:47.132Z,0.40
2022-11-29T04:44:09.311Z,0.60
2022-11-29T04:46:41.563Z,0.30
2022-11-29T04:49:27.781Z,1.02
2022-11-29T04:52:12.924Z,1.67
2022-11-29T04:55:29.251Z,0.25
2022-11-29T04:58:30.785Z,0.85
2022-11-29T05:01:23.525Z,1.30
2022-11-29T05:04:33.472Z,1.05
2022-11-29T05:07:11.277Z,0.93
2022-11-29T05:10:18.092Z,0.30
2022-11-29T05:13:08.181Z,0.30
2022-11-29T05:16:09.861Z,1.35
2022-11-29T05:18:52.591Z,0.70
2022-11-29T05:21:41.410Z,0.50
2022-11-29T05:24:15.155Z,0.60
2022-11-29T05:27:21.754Z,0.93
2022-11-29T05:30:09.422Z,1.80
2022-11-29T05:33:28.280Z,0.25
2022-11-29T05:36:29.610Z,0.10
2022-11-29T05:39:36.338Z,0.35
2022-11-29T05:42:42.117Z,0.45
2022-11-29T05:45:17.891Z,1.85
2022-11-29T05:48:15.540Z,0.20
2022-11-29T05:51:07.293Z,0.70
2022-11-29T05:54:14.250Z,0.40
2022-11-29T05:57:17.812Z,0.05
2022-11-29T05:59:55.445Z,0.30
2022-11-29T06:02:51.596Z,0.30
2022-11-29T06:06:02.686Z,1.80
2022-11-29T06:08:49.850Z,0.77
2022-11-29T06:11:25.518Z,1.00
2022-11-29T06:14:16.029Z,0.47
2022-11-29T06:17:39.684Z,0.10
2022-11-29T06:20:36.753Z,0.32
2022-11-29T06:23:25.927Z,0.17
2022-11-29T06:26:36.096Z,0.90
2022-11-29T06:30:08.243Z,0.13
2022-11-29T06:32:47.235Z,0.10
2022-11-29T06:35:55.939Z,0.03
2022-11-29T06:38:32.500Z,1.10
2022-11-29T06:41:03.205Z,3.10
2022-11-29T06:46:36.850Z,0.30
2022-11-29T06:49:16.474Z,0.10
2022-11-29T06:52:11.170Z,0.10
2022-11-29T06:55:01.796Z,0.30
2022-11-29T06:57:51.998Z,1.05
2022-11-29T07:00:39.041Z,1.08
2022-11-29T07:05:51.964Z,1.50
2022-11-29T07:08:27.779Z,1.33
2022-11-29T07:10:59.209Z,0.20
2022-11-29T07:13:30.244Z,0.43
2022-11-29T07:16:28.510Z,0.90
2022-11-29T07:19:04.795Z,2.75
2022-11-29T07:22:03.336Z,0.20
2022-11-29T07:25:02.944Z,0.43
2022-11-29T07:27:57.558Z,1.05
2022-11-29T07:30:53.998Z,0.13
2022-11-29T07:33:27.822Z,0.95
2022-11-29T07:36:40.802Z,1.35
2022-11-29T07:39:11.088Z,1.58
2022-11-29T07:42:03.860Z,0.00
2022-11-29T07:44:39.345Z,3.50
2022-11-29T07:47:11.878Z,2.47
2022-11-29T07:49:43.838Z,2.47
2022-11-29T07:52:18.692Z,2.85
2022-11-29T07:54:50.182Z,5.40
2022-11-29T07:57:20.440Z,5.55
2022-11-29T07:59:51.176Z,2.63
2022-11-29T08:02:34.250Z,2.25
2022-11-29T08:05:05.681Z,3.30
2022-11-29T08:07:40.429Z,4.03
2022-11-29T08:10:23.439Z,5.07
2022-11-29T08:12:54.197Z,3.15
2022-11-29T08:15:27.386Z,7.35
2022-11-29T08:17:58.068Z,5.15
2022-11-29T08:20:28.741Z,1.30
2022-11-29T08:23:00.909Z,2.72
2022-11-29T08:25:31.868Z,2.42
2022-11-29T08:28:05.648Z,3.13
2022-11-29T08:30:36.658Z,3.30
2022-11-29T08:33:07.437Z,5.28
2022-11-29T08:35:38.793Z,4.25
2022-11-29T08:38:12.193Z,3.22
2022-11-29T08:40:42.840Z,5.57
2022-11-29T08:43:13.550Z,2.30
2022-11-29T08:45:44.862Z,5.65
2022-11-29T08:48:17.356Z,2.40
2022-11-29T08:50:51.702Z,5.90
2022-11-29T08:53:41.508Z,4.78
2022-11-29T08:57:04.578Z,4.53
2022-11-29T08:59:08.904Z,7.28
2022-11-29T09:01:39.755Z,3.80
2022-11-29T09:04:12.643Z,4.57
2022-11-29T09:06:51.123Z,3.28
2022-11-29T09:09:22.575Z,3.30
2022-11-29T09:11:53.564Z,5.97
2022-11-29T09:14:26.241Z,4.38
2022-11-29T09:16:58.399Z,3.88
2022-11-29T09:19:30.364Z,2.25
2022-11-29T09:22:03.637Z,4.38
2022-11-29T09:24:37.405Z,2.90
2022-11-29T09:27:09.543Z,5.32
2022-11-29T09:29:41.919Z,4.10
2022-11-29T09:32:13.136Z,4.93
2022-11-29T09:34:44.515Z,6.38
2022-11-29T09:37:14.904Z,4.85
2022-11-29T09:39:45.411Z,6.10
2022-11-29T09:42:40.957Z,4.60
2022-11-29T09:45:20.024Z,5.55
2022-11-29T09:48:16.479Z,5.85
2022-11-29T09:51:09.975Z,4.90
2022-11-29T09:54:04.590Z,4.82
2022-11-29T09:56:42.845Z,5.45
2022-11-29T09:59:25.071Z,4.10
2022-11-29T10:02:29.042Z,8.82
2022-11-29T10:05:20.083Z,3.60
2022-11-29T10:08:16.267Z,5.55
2022-11-29T10:10:55.797Z,4.80
2022-11-29T10:13:34.524Z,5.65
2022-11-29T10:16:09.908Z,4.78
2022-11-29T10:18:57.192Z,5.68
2022-11-29T10:24:07.998Z,8.93
2022-11-29T10:26:38.613Z,5.18
2022-11-29T10:29:09.133Z,8.98
2022-11-29T10:31:45.840Z,6.95
2022-11-29T10:34:22.129Z,7.25
2022-11-29T10:37:03.029Z,4.60
2022-11-29T10:39:53.073Z,6.20
2022-11-29T10:42:46.940Z,8.23
2022-11-29T10:45:30.564Z,4.75
2022-11-29T10:48:35.691Z,7.55
2022-11-29T10:51:06.569Z,5.15
2022-11-29T10:53:40.780Z,9.90
2022-11-29T10:56:29.289Z,4.75
2022-11-29T10:59:05.240Z,8.55
2022-11-29T11:01:40.737Z,6.53
2022-11-29T11:04:27.507Z,6.10
2022-11-29T11:07:03.698Z,7.93
2022-11-29T11:09:41.841Z,6.63
2022-11-29T11:12:36.738Z,3.30
2022-11-29T11:15:37.109Z,7.00
2022-11-29T11:18:27.596Z,6.85
2022-11-29T11:21:04.260Z,4.53
2022-11-29T11:23:42.530Z,7.75
2022-11-29T11:26:16.652Z,7.20
2022-11-29T11:28:58.071Z,7.60
2022-11-29T11:31:30.870Z,8.07
2022-11-29T11:34:40.109Z,8.43
2022-11-29T11:37:20.251Z,6.78
2022-11-29T11:39:52.726Z,4.53
2022-11-29T11:42:40.887Z,6.18
2022-11-29T11:45:14.306Z,7.97
2022-11-29T11:48:18.026Z,4.15
2022-11-29T11:51:03.340Z,6.78
2022-11-29T11:53:37.472Z,5.20
2022-11-29T11:56:12.695Z,12.77
2022-11-29T11:58:45.740Z,7.72
2022-11-29T12:01:16.325Z,5.05
2022-11-29T12:04:08.799Z,8.02
2022-11-29T12:07:02.613Z,7.95
2022-11-29T12:10:02.020Z,8.45
2022-11-29T12:12:44.253Z,8.63
2022-11-29T12:15:22.929Z,7.25
2022-11-29T12:18:03.419Z,5.80
2022-11-29T12:20:58.290Z,5.88
2022-11-29T12:23:48.256Z,6.80
2022-11-29T12:26:56.415Z,6.15
2022-11-29T12:29:24.635Z,4.90
2022-11-29T12:32:13.107Z,9.98
2022-11-29T12:34:58.164Z,6.43
2022-11-29T12:37:45.583Z,6.10
2022-11-29T12:43:25.552Z,7.53
2022-11-29T12:46:03.065Z,8.27
2022-11-29T12:48:40.600Z,5.97
2022-11-29T12:51:19.017Z,8.32
2022-11-29T12:54:10.644Z,8.98
2022-11-29T12:57:04.637Z,8.07
2022-11-29T12:59:38.588Z,9.30
2022-11-29T13:02:40.237Z,9.20
2022-11-29T13:05:41.657Z,8.15
2022-11-29T13:08:47.740Z,10.27
2022-11-29T13:11:28.898Z,8.93
2022-11-29T13:14:46.157Z,6.32
2022-11-29T13:17:56.407Z,8.75
2022-11-29T13:20:32.566Z,11.10
2022-11-29T13:23:15.640Z,7.57
2022-11-29T13:25:53.496Z,8.82
2022-11-29T13:28:28.368Z,9.07
2022-11-29T13:31:03.789Z,7.15
2022-11-29T13:33:44.664Z,4.45
2022-11-29T13:36:28.434Z,12.73
2022-11-29T13:39:07.667Z,6.35
2022-11-29T13:41:38.284Z,10.55
2022-11-29T13:44:24.989Z,5.75
2022-11-29T13:47:04.041Z,10.00
2022-11-29T13:50:07.115Z,9.35
2022-11-29T13:52:40.774Z,7.78
2022-11-29T13:55:14.868Z,9.45
2022-11-29T14:00:46.747Z,4.60
2022-11-29T14:03:37.093Z,6.10
2022-11-29T14:06:34.342Z,10.55
2022-11-29T14:09:26.490Z,8.75
2022-11-29T14:12:26.237Z,6.82
2022-11-29T14:15:30.413Z,7.93
2022-11-29T14:18:09.623Z,10.93
2022-11-29T14:20:45.814Z,9.32
2022-11-29T14:23:17.064Z,11.05
2022-11-29T14:26:03.300Z,6.88
2022-11-29T14:28:40.953Z,7.28
2022-11-29T14:31:12.592Z,8.60
2022-11-29T14:34:06.374Z,6.60
2022-11-29T14:37:11.399Z,8.07
2022-11-29T14:39:49.242Z,7.68
2022-11-29T14:42:25.767Z,9.73
2022-11-29T14:45:06.353Z,11.15
2022-11-29T14:47:49.678Z,6.38
2022-11-29T14:50:35.612Z,5.03
2022-11-29T14:53:09.010Z,10.75
2022-11-29T14:55:41.423Z,4.40
2022-11-29T14:58:23.352Z,5.80
2022-11-29T15:00:53.963Z,7.07
2022-11-29T15:03:35.490Z,9.32
2022-11-29T15:06:20.025Z,7.95
2022-11-29T15:08:56.895Z,9.70
2022-11-29T15:14:17.364Z,7.25
2022-11-29T15:16:50.952Z,6.55
2022-11-29T15:19:40.347Z,8.27
2022-11-29T15:22:23.596Z,5.93
2022-11-29T15:25:04.432Z,6.07
2022-11-29T15:27:39.846Z,11.68
2022-11-29T15:30:43.662Z,9.43
2022-11-29T15:33:28.057Z,5.50
2022-11-29T15:36:07.063Z,7.47
2022-11-29T15:38:51.434Z,6.28
2022-11-29T15:41:30.847Z,5.93
2022-11-29T15:44:07.504Z,7.43
2022-11-29T15:46:38.549Z,4.63
2022-11-29T15:49:26.334Z,4.75
2022-11-29T15:52:04.280Z,3.45
2022-11-29T15:54:39.271Z,3.78
2022-11-29T15:57:15.312Z,6.35
2022-11-29T15:59:52.549Z,4.45
2022-11-29T16:02:32.845Z,1.90
2022-11-29T16:05:26.432Z,3.72
2022-11-29T16:08:00.210Z,5.20
2022-11-29T16:10:39.795Z,4.38
2022-11-29T16:13:39.408Z,5.82
2022-11-29T16:16:17.467Z,6.63
2022-11-29T16:18:51.060Z,8.75
2022-11-29T16:21:31.453Z,3.08
2022-11-29T16:24:12.705Z,5.72
2022-11-29T16:26:46.823Z,6.97
2022-11-29T16:29:31.918Z,4.63
2022-11-29T16:32:03.042Z,8.77
2022-11-29T16:34:35.620Z,5.47
2022-11-29T16:37:11.325Z,6.22
2022-11-29T16:39:42.718Z,5.75
2022-11-29T16:42:27.877Z,4.78
2022-11-29T16:45:01.037Z,5.05
2022-11-29T16:48:04.586Z,6.07
2022-11-29T16:50:37.313Z,5.78
2022-11-29T16:53:39.148Z,2.63
2022-11-29T16:56:15.499Z,6.55
2022-11-29T16:59:20.697Z,2.88
2022-11-29T17:01:39.156Z,9.95
2022-11-29T17:04:11.945Z,3.05
2022-11-29T17:06:59.094Z,5.78
2022-11-29T17:09:33.279Z,4.40
2022-11-29T17:12:06.626Z,2.95
2022-11-29T17:14:37.311Z,5.30
2022-11-29T17:17:08.144Z,4.38
2022-11-29T17:19:38.535Z,6.28
2022-11-29T17:22:08.764Z,3.20
2022-11-29T17:24:46.407Z,3.30
2022-11-29T17:27:19.448Z,6.18
2022-11-29T17:29:49.674Z,3.83
2022-11-29T17:32:24.877Z,3.63
2022-11-29T17:37:26.889Z,6.03
2022-11-29T17:39:58.431Z,5.30
2022-11-29T17:42:29.058Z,9.52
2022-11-29T17:44:59.350Z,10.38
2022-11-29T17:47:30.049Z,7.20
2022-11-29T17:50:00.933Z,4.10
2022-11-29T17:52:31.289Z,3.92
2022-11-29T17:55:02.032Z,8.57
2022-11-29T17:57:32.655Z,9.32
2022-11-29T18:00:03.155Z,6.10
2022-11-29T18:02:33.717Z,5.30
2022-11-29T18:05:04.122Z,9.32
2022-11-29T18:07:34.423Z,4.32
2022-11-29T18:10:04.812Z,6.47
2022-11-29T18:12:35.088Z,5.35
2022-11-29T18:15:05.900Z,6.78
2022-11-29T18:17:37.393Z,4.47
2022-11-29T18:20:08.275Z,5.00
2022-11-29T18:22:38.487Z,9.00
2022-11-29T18:25:36.901Z,5.75
2022-11-29T18:27:59.613Z,11.43
2022-11-29T18:30:30.362Z,8.23
2022-11-29T18:33:01.469Z,7.13
2022-11-29T18:35:31.835Z,9.10
2022-11-29T18:38:17.120Z,5.93
2022-11-29T18:40:48.308Z,7.63
2022-11-29T18:43:19.395Z,5.40
2022-11-29T18:45:49.609Z,7.18
2022-11-29T18:48:23.935Z,4.72
2022-11-29T18:50:54.623Z,6.78
2022-11-29T18:53:24.822Z,6.63
2022-11-29T18:56:03.437Z,6.10
2022-11-29T18:58:34.128Z,8.15
2022-11-29T19:01:13.513Z,9.88
2022-11-29T19:03:55.614Z,8.90
2022-11-29T19:06:30.799Z,6.32
2022-11-29T19:09:07.198Z,3.75
2022-11-29T19:11:38.720Z,5.40
2022-11-29T19:14:14.881Z,5.93
2022-11-29T19:16:47.430Z,7.45
2022-11-29T19:19:21.358Z,9.43
2022-11-29T19:21:53.302Z,5.22
2022-11-29T19:24:24.140Z,4.88
2022-11-29T19:27:00.274Z,6.15
2022-11-29T19:29:35.237Z,6.43
2022-11-29T19:32:10.187Z,7.53
2022-11-29T19:34:40.428Z,8.43
2022-11-29T19:37:12.214Z,8.15
2022-11-29T19:39:42.541Z,6.30
2022-11-29T19:42:13.940Z,9.35
2022-11-29T19:45:15.315Z,5.60
2022-11-29T19:47:35.215Z,8.75
2022-11-29T19:50:05.899Z,6.47
2022-11-29T19:52:36.523Z,4.88
2022-11-29T19:55:06.973Z,9.00
2022-11-29T19:57:37.359Z,5.60
2022-11-29T20:00:08.676Z,7.13
2022-11-29T20:02:38.859Z,10.48
2022-11-29T20:05:09.702Z,6.55
2022-11-29T20:07:39.923Z,7.53
2022-11-29T20:10:11.196Z,9.13
2022-11-29T20:12:41.593Z,10.20
2022-11-29T20:15:12.044Z,7.50
2022-11-29T20:17:43.083Z,6.55
2022-11-29T20:20:14.481Z,6.88
2022-11-29T20:22:44.701Z,5.45
2022-11-29T20:25:15.049Z,6.70
2022-11-29T20:27:45.289Z,12.75
2022-11-29T20:30:17.243Z,9.25
2022-11-29T20:32:49.104Z,5.18
2022-11-29T20:35:20.537Z,7.22
2022-11-29T20:38:36.529Z,9.05
2022-11-29T20:41:41.825Z,5.55
2022-11-29T20:44:16.920Z,5.68
2022-11-29T20:46:47.369Z,10.50
2022-11-29T20:49:19.881Z,5.07
2022-11-29T20:52:06.342Z,7.55
2022-11-29T20:54:36.858Z,9.48
2022-11-29T20:57:07.425Z,4.38
2022-11-29T20:59:37.845Z,5.85
2022-11-29T21:02:08.346Z,9.63
2022-11-29T21:04:38.843Z,7.70
2022-11-29T21:07:09.272Z,6.43
2022-11-29T21:09:39.712Z,10.55
2022-11-29T21:12:10.489Z,5.82
2022-11-29T21:14:41.071Z,7.35
2022-11-29T21:17:12.069Z,6.45
2022-11-29T21:19:42.566Z,5.85
2022-11-29T21:22:30.649Z,6.50
2022-11-29T21:25:12.454Z,3.08
2022-11-29T21:27:43.419Z,6.40
2022-11-29T21:30:22.520Z,6.57
2022-11-29T21:32:54.221Z,5.05
2022-11-29T21:35:24.637Z,6.32
2022-11-29T21:37:59.620Z,14.35
2022-11-29T21:40:32.037Z,5.88
2022-11-29T21:43:02.746Z,4.72
2022-11-29T21:45:33.083Z,6.55
2022-11-29T21:48:03.475Z,6.72
2022-11-29T21:50:33.831Z,6.22
2022-11-29T21:53:04.061Z,5.32
2022-11-29T21:55:34.399Z,5.55
2022-11-29T21:58:04.604Z,8.48
2022-11-29T22:00:37.535Z,8.95
2022-11-29T22:03:09.133Z,7.20
2022-11-29T22:05:39.497Z,6.07
2022-11-29T22:08:09.955Z,7.57
2022-11-29T22:10:40.277Z,5.32
2022-11-29T22:13:10.532Z,1.98
2022-11-29T22:15:42.303Z,3.60
2022-11-29T22:18:13.673Z,4.72
2022-11-29T22:20:44.086Z,3.40
2022-11-29T22:23:14.400Z,3.05
2022-11-29T22:25:44.908Z,7.40
2022-11-29T22:28:15.177Z,2.40
2022-11-29T22:30:45.866Z,4.60
2022-11-29T22:33:16.503Z,5.05
2022-11-29T22:35:47.229Z,5.47
2022-11-29T22:38:17.663Z,4.38
2022-11-29T22:40:48.245Z,4.47
2022-11-29T22:43:18.492Z,5.68
2022-11-29T22:46:15.453Z,2.53
2022-11-29T22:51:22.249Z,4.55
2022-11-29T22:54:00.388Z,8.02
2022-11-29T22:56:33.741Z,2.78
2022-11-29T22:59:04.693Z,2.45
2022-11-29T23:01:37.832Z,2.38
2022-11-29T23:04:09.841Z,2.05
2022-11-29T23:06:47.916Z,4.88
2022-11-29T23:09:23.738Z,2.58
2022-11-29T23:11:56.578Z,2.57
2022-11-29T23:14:27.064Z,4.90
2022-11-29T23:16:58.319Z,4.53
2022-11-29T23:19:29.007Z,4.72
2022-11-29T23:21:59.975Z,3.42
2022-11-29T23:24:32.416Z,5.78
2022-11-29T23:27:02.642Z,3.13
2022-11-29T23:29:32.835Z,5.30
2022-11-29T23:32:04.486Z,4.50
2022-11-29T23:34:35.233Z,3.45
2022-11-29T23:37:06.225Z,2.78
2022-11-29T23:39:36.511Z,3.67
2022-11-29T23:42:07.038Z,1.83
2022-11-29T23:44:37.322Z,3.03
2022-11-29T23:47:07.543Z,3.45
2022-11-29T23:49:41.454Z,1.52
2022-11-29T23:52:11.996Z,3.67
2022-11-29T23:54:42.366Z,2.22
2022-11-29T23:57:15.961Z,4.97
2022-11-29T23:59:46.257Z,3.45
